SBLS

Details ICAO SBLS
Name LAGOA SANTA
Region Brazil
Timezone America/Sao_Paulo (UTC-2.0)
Plans Departing 3
Arriving 3
Stats Elevation 2,795 ft / 852 m (AMSL)
Location -19.661611° -43.896402°
Runways 1
Magnetic Variation 22.826° W
Sunrise 2017-12-17 08:13:42 UTC / 2017-12-17 06:13:42 Local
Sunset 2017-12-17 21:32:33 UTC / 2017-12-17 19:32:33 Local
Advertisement - Login to hide

Runways

ID Width Length Bearing (true) Bearing (mag) Surface Threshold Offset Overrun Length
13 98 ft / 30 m 6,031 ft / 1,838 m 105.40° 128.23° Asphalt 0 ft / 0 m 0 ft / 0 m
31 98 ft / 30 m 6,031 ft / 1,838 m 285.40° 308.23° Asphalt 0 ft / 0 m 0 ft / 0 m

Map

Weather


0- 5 10 15 20 25 30 35+ Temperature / ° C

Clouds and Precipitation
Forecast for 2017-12-17 12:00 UTC. Updated an hour ago

Ground ~20,000 ft ~40,000 ft Winds

METAR

SBLS 170800Z 15004KT 9999 SCT025 SCT070 19/18 Q1017

TAF

Not found

Frequencies

Tower 122.80 MHz RDO
Warning: Do not use this data for real-world aviation or navigation. No guarantee of current accuracy is given.